world map with TIN marked

TIN - Airport

This information may not be accurate or current and is not valid for navigation or flight planning. No warranty of fitness for any purpose is made or implied.

flag of Algeria

Donate via PayPal

Additional information is available on the NEW Great Circle Mapper

Location
City:  Tindouf, Tindouf, Algeria
Name:Tindouf Airport
ICAO / IATA:DAOF / TIN

Details
Type:Airport (Aerodrome, Airfield)
Use:Public/Civil
Latitude:27°42'00"N (27.700000)
Longitude:8°10'00"W (-8.166666)
Elevation:1453 ft (443 m)
Runways:1
Longest:9843 × 148 ft (3000 × 45 m)

Time
Timezone:UTC+1 (DST+3)
Local Time:

Weather
METAR:DAOF  041400Z 08016KT 5000 DRSA NSC 21/M04 Q1024
TAF:DAOF  (expired)

Related Locations
Nearby:
Farthest:NLK: 12189 mi / 19616 km
Norfolk Island, NF

Find:

   beyond  
but within

Other Information
Maps:
Sources:

  


 


Great Circle Mapper   Great Circle Mapper
Great Circle Mapper FAQ   Great Circle Mapper FAQ
  Karl's Home Page
KLSē   KLSē Home
   GC on Facebook
Airlines of the World   Airlines of the World
Donate via PayPal


Copyright © 2004-2020, Karl L. Swartz. All rights reserved.
All trademarks mentioned herein belong to their respective owners.

Please see credits for attribution and copyright information.

Karl Swartz <karl@kls2.com>
  Powered by FreeBSD
Valid HTML 4.01!
Labeled with ICRA
hCard Microformat
Geo Microformat